createdAt,value
2017-08-30T00:00:27.232Z,0
2017-08-30T00:01:26.953Z,0
2017-08-30T00:02:27.334Z,0
2017-08-30T00:03:27.337Z,0
2017-08-30T00:04:27.366Z,0
2017-08-30T00:05:27.993Z,0
2017-08-30T00:06:27.800Z,0
2017-08-30T00:07:27.835Z,0
2017-08-30T00:08:28.104Z,0
2017-08-30T00:09:27.580Z,0
2017-08-30T00:10:27.930Z,0
2017-08-30T00:11:27.660Z,0
2017-08-30T00:12:28.012Z,0
2017-08-30T00:13:27.384Z,0
2017-08-30T00:14:28.113Z,0
2017-08-30T00:15:28.167Z,0
2017-08-30T00:16:28.192Z,0
2017-08-30T00:17:27.910Z,0
2017-08-30T00:18:27.962Z,0
2017-08-30T00:19:28.702Z,0
2017-08-30T00:20:28.739Z,0
2017-08-30T00:21:28.772Z,0
2017-08-30T00:22:28.805Z,0
2017-08-30T00:23:28.836Z,0
2017-08-30T00:24:28.569Z,0
2017-08-30T00:25:28.593Z,0
2017-08-30T00:26:28.946Z,0
2017-08-30T00:27:28.988Z,0
2017-08-30T00:28:28.694Z,0
2017-08-30T00:29:29.049Z,0
2017-08-30T00:30:28.773Z,0
2017-08-30T00:31:29.111Z,0
2017-08-30T00:32:28.829Z,0
2017-08-30T00:33:28.223Z,0
2017-08-30T00:34:29.219Z,0
2017-08-30T00:35:29.241Z,0
2017-08-30T00:36:29.280Z,0
2017-08-30T00:37:29.311Z,0
2017-08-30T00:38:29.038Z,0
2017-08-30T00:39:29.758Z,0
2017-08-30T00:40:29.480Z,0
2017-08-30T00:41:29.820Z,0
2017-08-30T00:42:29.532Z,0
2017-08-30T00:43:29.565Z,0
2017-08-30T00:44:29.604Z,0
2017-08-30T00:45:29.316Z,0
2017-08-30T00:46:30.031Z,0
2017-08-30T00:47:29.757Z,0
2017-08-30T00:48:29.781Z,0
2017-08-30T00:49:30.493Z,0
2017-08-30T00:50:30.531Z,0
2017-08-30T00:51:30.561Z,0
2017-08-30T00:52:30.286Z,0
2017-08-30T00:53:30.708Z,0
2017-08-30T00:54:31.050Z,0
2017-08-30T00:55:31.087Z,0
2017-08-30T00:56:30.794Z,0
2017-08-30T00:57:30.951Z,0
2017-08-30T00:58:31.191Z,0
2017-08-30T00:59:30.911Z,0
2017-08-30T01:00:31.257Z,0
2017-08-30T01:01:31.288Z,0
2017-08-30T01:02:31.320Z,0
2017-08-30T01:03:31.361Z,0
2017-08-30T01:04:31.084Z,0
2017-08-30T01:05:31.428Z,0
2017-08-30T01:06:31.141Z,0
2017-08-30T01:07:31.505Z,0
2017-08-30T01:08:31.528Z,0
2017-08-30T01:09:31.570Z,0
2017-08-30T01:10:31.592Z,0
2017-08-30T01:11:31.635Z,0
2017-08-30T01:12:31.664Z,0
2017-08-30T01:13:31.366Z,0
2017-08-30T01:14:32.106Z,0
2017-08-30T01:15:32.138Z,0
2017-08-30T01:16:32.177Z,0
2017-08-30T01:17:32.208Z,0
2017-08-30T01:18:31.908Z,0
2017-08-30T01:19:31.942Z,0
2017-08-30T01:20:31.992Z,0
2017-08-30T01:21:32.347Z,0
2017-08-30T01:22:32.380Z,0
2017-08-30T01:23:32.413Z,0
2017-08-30T01:24:32.454Z,0
2017-08-30T01:25:32.492Z,0
2017-08-30T01:26:32.515Z,0
2017-08-30T01:27:31.921Z,0
2017-08-30T01:28:32.332Z,0
2017-08-30T01:29:32.384Z,0
2017-08-30T01:30:32.399Z,0
2017-08-30T01:31:32.798Z,0
2017-08-30T01:32:32.822Z,0
2017-08-30T01:33:32.855Z,0
2017-08-30T01:34:32.904Z,0
2017-08-30T01:35:32.931Z,0
2017-08-30T01:36:32.637Z,0
2017-08-30T01:37:32.688Z,0
2017-08-30T01:38:33.120Z,0
2017-08-30T01:39:33.147Z,0
2017-08-30T01:40:33.193Z,0
2017-08-30T01:41:32.900Z,0
2017-08-30T01:42:33.255Z,0
2017-08-30T01:43:33.291Z,0
2017-08-30T01:44:32.680Z,0
2017-08-30T01:45:33.729Z,0
2017-08-30T01:46:33.450Z,0
2017-08-30T01:47:33.489Z,0
2017-08-30T01:48:33.183Z,0
2017-08-30T01:49:34.237Z,0
2017-08-30T01:50:34.270Z,0
2017-08-30T01:51:34.300Z,0
2017-08-30T01:52:34.331Z,0
2017-08-30T01:53:34.364Z,0
2017-08-30T01:54:34.097Z,0
2017-08-30T01:55:34.431Z,0
2017-08-30T01:56:34.157Z,0
2017-08-30T01:57:34.520Z,0
2017-08-30T01:58:34.540Z,0
2017-08-30T01:59:34.925Z,0
2017-08-30T02:00:34.651Z,0
2017-08-30T02:01:34.742Z,0
2017-08-30T02:02:34.783Z,0
2017-08-30T02:03:35.268Z,0
2017-08-30T02:04:35.690Z,0
2017-08-30T02:05:35.395Z,0
2017-08-30T02:06:35.807Z,0
2017-08-30T02:07:35.500Z,0
2017-08-30T02:08:35.818Z,0
2017-08-30T02:09:35.527Z,0
2017-08-30T02:10:35.583Z,0
2017-08-30T02:11:35.608Z,0
2017-08-30T02:12:35.950Z,0
2017-08-30T02:13:36.002Z,0
2017-08-30T02:14:35.691Z,0
2017-08-30T02:15:35.738Z,0
2017-08-30T02:16:36.103Z,0
2017-08-30T02:17:36.122Z,0
2017-08-30T02:18:36.158Z,0
2017-08-30T02:19:35.893Z,0
2017-08-30T02:20:35.273Z,0
2017-08-30T02:21:35.930Z,0
2017-08-30T02:22:36.303Z,0
2017-08-30T02:23:36.328Z,0
2017-08-30T02:24:35.711Z,0
2017-08-30T02:25:35.769Z,0
2017-08-30T02:26:36.815Z,0
2017-08-30T02:27:36.539Z,0
2017-08-30T02:28:36.975Z,0
2017-08-30T02:29:37.685Z,0
2017-08-30T02:30:37.402Z,0
2017-08-30T02:31:37.422Z,0
2017-08-30T02:32:37.448Z,0
2017-08-30T02:33:37.818Z,0
2017-08-30T02:34:37.853Z,0
2017-08-30T02:35:37.892Z,0
2017-08-30T02:36:37.925Z,0
2017-08-30T02:37:37.639Z,0
2017-08-30T02:38:38.064Z,0
2017-08-30T02:39:38.453Z,0
2017-08-30T02:40:37.867Z,0
2017-08-30T02:41:38.920Z,0
2017-08-30T02:42:38.944Z,0
2017-08-30T02:43:38.991Z,0
2017-08-30T02:44:39.081Z,0
2017-08-30T02:45:39.056Z,0
2017-08-30T02:46:39.095Z,0
2017-08-30T02:47:38.805Z,0
2017-08-30T02:48:39.223Z,0
2017-08-30T02:49:38.921Z,0
2017-08-30T02:50:39.632Z,0
2017-08-30T02:51:39.683Z,0
2017-08-30T02:52:39.397Z,0
2017-08-30T02:53:39.468Z,0
2017-08-30T02:54:39.834Z,0
2017-08-30T02:55:39.537Z,0
2017-08-30T02:56:39.911Z,0
2017-08-30T02:57:39.624Z,0
2017-08-30T02:58:39.970Z,0
2017-08-30T02:59:40.009Z,0
2017-08-30T03:00:40.030Z,0
2017-08-30T03:01:39.765Z,0
2017-08-30T03:02:39.777Z,0
2017-08-30T03:03:39.821Z,0
2017-08-30T03:04:40.165Z,0
2017-08-30T03:05:39.867Z,0
2017-08-30T03:06:40.292Z,0
2017-08-30T03:07:41.043Z,0
2017-08-30T03:08:40.733Z,0
2017-08-30T03:09:41.107Z,0
2017-08-30T03:10:40.814Z,0
2017-08-30T03:11:41.172Z,0
2017-08-30T03:12:40.865Z,0
2017-08-30T03:13:41.244Z,0
2017-08-30T03:14:41.260Z,0
2017-08-30T03:15:41.304Z,0
2017-08-30T03:16:41.337Z,0
2017-08-30T03:17:41.034Z,0
2017-08-30T03:18:41.756Z,0
2017-08-30T03:19:41.782Z,0
2017-08-30T03:20:41.504Z,0
2017-08-30T03:21:41.853Z,0
2017-08-30T03:22:41.878Z,0
2017-08-30T03:23:41.585Z,0
2017-08-30T03:24:41.962Z,0
2017-08-30T03:25:41.982Z,0
2017-08-30T03:26:42.024Z,0
2017-08-30T03:27:42.052Z,0
2017-08-30T03:28:42.083Z,0
2017-08-30T03:29:42.117Z,0
2017-08-30T03:30:42.157Z,0
2017-08-30T03:31:42.178Z,0
2017-08-30T03:32:42.218Z,0
2017-08-30T03:33:42.244Z,0
2017-08-30T03:34:41.635Z,0
2017-08-30T03:35:42.380Z,0
2017-08-30T03:36:42.724Z,0
2017-08-30T03:37:42.424Z,0
2017-08-30T03:38:42.788Z,0
2017-08-30T03:39:42.834Z,0
2017-08-30T03:40:43.241Z,0
2017-08-30T03:41:43.269Z,4
2017-08-30T03:42:43.292Z,4
2017-08-30T03:43:43.336Z,0
2017-08-30T03:44:43.366Z,4
2017-08-30T03:45:43.393Z,4
2017-08-30T03:46:43.440Z,4
2017-08-30T03:47:43.138Z,4
2017-08-30T03:48:43.852Z,4
2017-08-30T03:49:43.880Z,4
2017-08-30T03:50:43.605Z,4
2017-08-30T03:51:43.638Z,8
2017-08-30T03:52:43.668Z,8
2017-08-30T03:53:44.026Z,12
2017-08-30T03:54:43.714Z,12
2017-08-30T03:55:44.104Z,16
2017-08-30T03:56:44.142Z,20
2017-08-30T03:57:44.157Z,20
2017-08-30T03:58:44.185Z,24
2017-08-30T03:59:44.213Z,28
2017-08-30T04:00:43.916Z,32
2017-08-30T04:01:43.952Z,36
2017-08-30T04:02:44.669Z,44
2017-08-30T04:03:44.706Z,48
2017-08-30T04:04:44.746Z,52
2017-08-30T04:05:44.766Z,60
2017-08-30T04:06:44.470Z,68
2017-08-30T04:07:44.873Z,76
2017-08-30T04:08:44.586Z,84
2017-08-30T04:09:44.733Z,92
2017-08-30T04:10:44.400Z,104
2017-08-30T04:11:45.455Z,116
2017-08-30T04:12:45.176Z,124
2017-08-30T04:13:45.539Z,136
2017-08-30T04:14:45.567Z,148
2017-08-30T04:15:45.585Z,164
2017-08-30T04:16:45.311Z,176
2017-08-30T04:17:45.337Z,188
2017-08-30T04:18:45.374Z,204
2017-08-30T04:19:45.410Z,224
2017-08-30T04:20:45.758Z,240
2017-08-30T04:21:45.476Z,260
2017-08-30T04:22:45.826Z,276
2017-08-30T04:23:45.540Z,296
2017-08-30T04:24:45.935Z,316
2017-08-30T04:25:46.280Z,336
2017-08-30T04:26:46.324Z,360
2017-08-30T04:27:46.347Z,380
2017-08-30T04:28:46.053Z,404
2017-08-30T04:29:46.543Z,428
2017-08-30T04:30:46.450Z,456
2017-08-30T04:31:46.154Z,480
2017-08-30T04:32:46.560Z,504
2017-08-30T04:33:46.984Z,532
2017-08-30T04:34:47.446Z,556
2017-08-30T04:35:47.489Z,584
2017-08-30T04:36:47.595Z,608
2017-08-30T04:37:48.338Z,636
2017-08-30T04:38:48.372Z,664
2017-08-30T04:39:48.724Z,692
2017-08-30T04:40:48.758Z,716
2017-08-30T04:41:48.777Z,748
2017-08-30T04:42:48.822Z,776
2017-08-30T04:43:48.531Z,804
2017-08-30T04:44:48.552Z,832
2017-08-30T04:45:48.924Z,864
2017-08-30T04:46:48.938Z,888
2017-08-30T04:47:48.988Z,916
2017-08-30T04:48:49.027Z,948
2017-08-30T04:49:48.741Z,972
2017-08-30T04:50:49.101Z,1008
2017-08-30T04:51:49.120Z,1032
2017-08-30T04:52:49.150Z,1060
2017-08-30T04:53:48.905Z,1092
2017-08-30T04:54:49.966Z,1124
2017-08-30T04:55:49.688Z,1152
2017-08-30T04:56:50.036Z,1180
2017-08-30T04:57:49.725Z,1208
2017-08-30T04:58:50.440Z,1232
2017-08-30T04:59:50.474Z,1260
2017-08-30T05:00:50.190Z,1288
2017-08-30T05:01:50.549Z,1312
2017-08-30T05:02:50.578Z,1340
2017-08-30T05:03:50.594Z,1372
2017-08-30T05:04:50.640Z,1396
2017-08-30T05:05:50.693Z,1424
2017-08-30T05:06:50.368Z,1456
2017-08-30T05:07:50.873Z,1484
2017-08-30T05:08:50.531Z,1512
2017-08-30T05:09:50.539Z,1544
2017-08-30T05:10:50.953Z,1568
2017-08-30T05:11:50.979Z,1596
2017-08-30T05:12:51.017Z,1624
2017-08-30T05:13:50.723Z,1648
2017-08-30T05:14:50.743Z,1676
2017-08-30T05:15:51.461Z,1704
2017-08-30T05:16:51.498Z,1728
2017-08-30T05:17:51.523Z,1752
2017-08-30T05:18:51.225Z,1780
2017-08-30T05:19:51.592Z,1800
2017-08-30T05:20:51.634Z,1824
2017-08-30T05:21:51.664Z,1848
2017-08-30T05:22:51.698Z,1876
2017-08-30T05:23:51.459Z,1900
2017-08-30T05:24:52.170Z,1932
2017-08-30T05:25:51.882Z,1960
2017-08-30T05:26:51.993Z,1980
2017-08-30T05:27:52.750Z,2004
2017-08-30T05:28:52.445Z,2040
2017-08-30T05:29:52.861Z,2068
2017-08-30T05:30:53.230Z,2104
2017-08-30T05:31:53.250Z,2144
2017-08-30T05:32:53.289Z,2224
2017-08-30T05:33:53.001Z,2304
2017-08-30T05:34:53.358Z,2444
2017-08-30T05:35:53.148Z,2660
2017-08-30T05:36:53.894Z,2772
2017-08-30T05:37:53.920Z,2792
2017-08-30T05:38:53.646Z,2772
2017-08-30T05:39:53.986Z,2720
2017-08-30T05:40:53.374Z,2768
2017-08-30T05:41:54.057Z,2840
2017-08-30T05:42:54.089Z,3104
2017-08-30T05:43:53.811Z,3300
2017-08-30T05:44:53.870Z,3192
2017-08-30T05:45:53.864Z,3020
2017-08-30T05:46:54.300Z,3056
2017-08-30T05:47:55.087Z,3140
2017-08-30T05:48:55.112Z,3180
2017-08-30T05:49:54.513Z,3348
2017-08-30T05:50:55.156Z,3552
2017-08-30T05:51:54.992Z,3552
2017-08-30T05:52:55.395Z,3636
2017-08-30T05:53:55.425Z,3704
2017-08-30T05:54:55.530Z,3984
2017-08-30T05:55:55.506Z,4152
2017-08-30T05:56:54.569Z,4272
2017-08-30T05:57:55.631Z,5268
2017-08-30T05:58:55.662Z,4904
2017-08-30T05:59:55.362Z,5404
2017-08-30T06:00:55.753Z,5956
2017-08-30T06:01:56.156Z,5956
2017-08-30T06:02:56.626Z,5764
2017-08-30T06:03:56.361Z,5980
2017-08-30T06:04:56.693Z,6488
2017-08-30T06:05:56.400Z,6484
2017-08-30T06:06:56.492Z,6948
2017-08-30T06:07:57.376Z,6988
2017-08-30T06:08:57.357Z,6796
2017-08-30T06:09:57.695Z,6864
2017-08-30T06:10:57.398Z,7028
2017-08-30T06:11:57.776Z,7132
2017-08-30T06:12:57.890Z,7564
2017-08-30T06:13:57.839Z,7600
2017-08-30T06:14:57.880Z,7644
2017-08-30T06:15:57.610Z,7692
2017-08-30T06:16:58.353Z,7648
2017-08-30T06:17:58.439Z,7640
2017-08-30T06:18:58.827Z,7640
2017-08-30T06:19:59.557Z,7680
2017-08-30T06:20:59.249Z,7636
2017-08-30T06:21:59.614Z,7616
2017-08-30T06:22:59.672Z,7624
2017-08-30T06:23:59.376Z,7652
2017-08-30T06:24:59.733Z,7520
2017-08-30T06:25:59.776Z,7452
2017-08-30T06:26:59.838Z,7432
2017-08-30T06:27:59.857Z,7392
2017-08-30T06:28:59.556Z,7348
2017-08-30T06:29:59.600Z,7252
2017-08-30T06:30:59.677Z,7188
2017-08-30T06:32:00.028Z,7084
2017-08-30T06:33:00.436Z,7024
2017-08-30T06:34:00.477Z,6996
2017-08-30T06:35:00.532Z,6892
2017-08-30T06:36:00.566Z,6840
2017-08-30T06:37:00.281Z,6820
2017-08-30T06:38:00.750Z,6856
2017-08-30T06:39:01.196Z,6852
2017-08-30T06:40:01.268Z,6864
2017-08-30T06:41:01.273Z,6888
2017-08-30T06:42:00.992Z,7012
2017-08-30T06:43:01.366Z,7020
2017-08-30T06:44:01.068Z,6920
2017-08-30T06:45:01.430Z,6956
2017-08-30T06:46:01.470Z,6956
2017-08-30T06:47:01.511Z,6924
2017-08-30T06:48:01.233Z,6888
2017-08-30T06:49:01.273Z,7008
2017-08-30T06:50:02.023Z,7124
2017-08-30T06:51:01.420Z,7020
2017-08-30T06:52:02.531Z,6904
2017-08-30T06:53:01.912Z,6876
2017-08-30T06:54:02.641Z,6952
2017-08-30T06:55:02.716Z,7112
2017-08-30T06:56:03.082Z,7196
2017-08-30T06:57:02.842Z,7292
2017-08-30T06:58:03.289Z,7824
2017-08-30T06:59:03.328Z,8044
2017-08-30T07:00:04.042Z,8056
2017-08-30T07:01:04.190Z,8292
2017-08-30T07:02:04.190Z,8100
2017-08-30T07:03:04.188Z,7568
2017-08-30T07:04:04.232Z,7216
2017-08-30T07:05:04.293Z,7148
2017-08-30T07:06:04.316Z,7296
2017-08-30T07:07:04.363Z,7524
2017-08-30T07:08:04.511Z,7796
2017-08-30T07:09:04.439Z,8200
2017-08-30T07:10:04.336Z,9136
2017-08-30T07:11:04.517Z,11048
2017-08-30T07:12:04.245Z,13392
2017-08-30T07:13:04.658Z,15404
2017-08-30T07:14:05.394Z,18176
2017-08-30T07:15:05.428Z,20416
2017-08-30T07:16:05.518Z,21984
2017-08-30T07:17:05.921Z,22784
2017-08-30T07:18:05.652Z,23776
2017-08-30T07:19:06.073Z,27232
2017-08-30T07:20:06.109Z,29888
2017-08-30T07:21:06.145Z,32672
2017-08-30T07:22:06.205Z,35648
2017-08-30T07:23:05.938Z,36672
2017-08-30T07:24:06.677Z,36576
2017-08-30T07:25:06.777Z,36736
2017-08-30T07:26:06.739Z,37216
2017-08-30T07:27:06.177Z,38528
2017-08-30T07:28:07.240Z,38944
2017-08-30T07:29:06.971Z,38816
2017-08-30T07:30:07.084Z,41056
2017-08-30T07:31:07.373Z,41216
2017-08-30T07:32:07.434Z,40896
2017-08-30T07:33:07.128Z,42272
2017-08-30T07:34:07.182Z,43104
2017-08-30T07:35:07.549Z,43968
2017-08-30T07:36:07.574Z,45216
2017-08-30T07:37:07.615Z,46240
2017-08-30T07:38:07.343Z,46304
2017-08-30T07:39:07.754Z,44992
2017-08-30T07:40:07.786Z,41408
2017-08-30T07:41:08.193Z,35200
2017-08-30T07:42:07.934Z,29856
2017-08-30T07:43:09.044Z,25184
2017-08-30T07:44:08.706Z,20384
2017-08-30T07:45:09.117Z,17248
2017-08-30T07:46:09.209Z,15148
2017-08-30T07:47:09.455Z,14136
2017-08-30T07:48:09.262Z,12912
2017-08-30T07:49:08.945Z,12264
2017-08-30T07:50:09.055Z,11524
2017-08-30T07:51:09.014Z,11140
2017-08-30T07:52:09.383Z,10768
2017-08-30T07:53:09.096Z,10212
2017-08-30T07:54:09.534Z,10072
2017-08-30T07:55:09.609Z,10028
2017-08-30T07:56:09.348Z,10072
2017-08-30T07:57:09.761Z,9900
2017-08-30T07:58:10.492Z,9840
2017-08-30T07:59:10.543Z,9712
2017-08-30T08:00:10.785Z,9524
2017-08-30T08:01:09.970Z,9512
2017-08-30T08:02:10.712Z,9388
2017-08-30T08:03:10.796Z,9188
2017-08-30T08:04:10.799Z,9500
2017-08-30T08:05:10.836Z,9684
2017-08-30T08:06:10.580Z,9564
2017-08-30T08:07:10.971Z,9616
2017-08-30T08:08:11.895Z,9880
2017-08-30T08:09:11.877Z,10260
2017-08-30T08:10:11.876Z,10512
2017-08-30T08:11:11.598Z,10444
2017-08-30T08:12:12.041Z,10152
2017-08-30T08:13:12.074Z,10192
2017-08-30T08:14:12.115Z,10280
2017-08-30T08:15:12.595Z,10248
2017-08-30T08:16:12.635Z,10204
2017-08-30T08:17:13.030Z,11924
2017-08-30T08:18:13.036Z,15776
2017-08-30T08:19:12.751Z,17024
2017-08-30T08:20:13.132Z,15168
2017-08-30T08:21:12.840Z,12908
2017-08-30T08:22:13.595Z,12220
2017-08-30T08:23:12.655Z,11888
2017-08-30T08:24:13.408Z,11768
2017-08-30T08:25:13.838Z,11872
2017-08-30T08:26:13.574Z,11648
2017-08-30T08:27:13.619Z,11396
2017-08-30T08:28:13.392Z,11336
2017-08-30T08:29:14.402Z,11176
2017-08-30T08:30:14.458Z,11012
2017-08-30T08:31:13.850Z,10676
2017-08-30T08:32:14.600Z,10436
2017-08-30T08:33:14.628Z,10240
2017-08-30T08:34:14.108Z,9920
2017-08-30T08:35:15.117Z,9788
2017-08-30T08:36:15.153Z,9716
2017-08-30T08:37:15.207Z,9688
2017-08-30T08:38:14.609Z,9748
2017-08-30T08:39:14.409Z,9820
2017-08-30T08:40:14.563Z,9844
2017-08-30T08:41:15.482Z,9876
2017-08-30T08:42:15.209Z,9936
2017-08-30T08:43:15.625Z,10020
2017-08-30T08:44:15.665Z,10036
2017-08-30T08:45:15.825Z,10040
2017-08-30T08:46:15.761Z,10092
2017-08-30T08:47:15.810Z,10136
2017-08-30T08:48:15.228Z,10220
2017-08-30T08:49:16.027Z,10372
2017-08-30T08:50:16.342Z,10480
2017-08-30T08:51:15.755Z,10540
2017-08-30T08:52:16.522Z,10596
2017-08-30T08:53:16.936Z,10572
2017-08-30T08:54:16.967Z,10580
2017-08-30T08:55:17.071Z,10572
2017-08-30T08:56:17.132Z,10580
2017-08-30T08:57:17.498Z,10616
2017-08-30T08:58:16.914Z,10628
2017-08-30T08:59:17.993Z,10660
2017-08-30T09:00:17.721Z,10748
2017-08-30T09:01:18.084Z,10864
2017-08-30T09:02:18.130Z,10900
2017-08-30T09:03:17.867Z,10896
2017-08-30T09:04:17.922Z,11012
2017-08-30T09:05:17.727Z,11104
2017-08-30T09:06:18.150Z,11276
2017-08-30T09:07:18.993Z,11464
2017-08-30T09:08:19.274Z,11708
2017-08-30T09:09:18.682Z,11896
2017-08-30T09:10:19.436Z,12244
2017-08-30T09:11:19.876Z,12528
2017-08-30T09:12:19.616Z,12772
2017-08-30T09:13:19.723Z,13272
2017-08-30T09:14:19.752Z,13508
2017-08-30T09:15:19.488Z,13868
2017-08-30T09:16:20.244Z,15212
2017-08-30T09:17:19.968Z,17728
2017-08-30T09:18:20.389Z,20160
2017-08-30T09:19:19.444Z,22368
2017-08-30T09:20:20.116Z,25728
2017-08-30T09:21:20.878Z,29152
2017-08-30T09:22:20.929Z,31136
2017-08-30T09:23:20.973Z,33312
2017-08-30T09:24:20.723Z,34624
2017-08-30T09:25:20.815Z,35296
2017-08-30T09:26:21.888Z,35872
2017-08-30T09:27:21.936Z,36832
2017-08-30T09:28:21.984Z,36896
2017-08-30T09:29:22.038Z,35072
2017-08-30T09:30:22.080Z,33568
2017-08-30T09:31:21.822Z,33088
2017-08-30T09:32:22.169Z,35008
2017-08-30T09:33:22.242Z,35808
2017-08-30T09:34:21.964Z,34144
2017-08-30T09:35:22.333Z,29824
2017-08-30T09:36:22.057Z,26432
2017-08-30T09:37:22.432Z,26176
2017-08-30T09:38:22.481Z,27328
2017-08-30T09:39:22.190Z,28032
2017-08-30T09:40:22.582Z,29824
2017-08-30T09:41:22.629Z,37216
2017-08-30T09:42:22.357Z,44160
2017-08-30T09:43:22.477Z,48576
2017-08-30T09:44:22.845Z,54144
2017-08-30T09:45:22.579Z,62624
2017-08-30T09:46:23.299Z,72448
2017-08-30T09:47:23.412Z,81920
2017-08-30T09:48:23.443Z,84320
2017-08-30T09:49:23.492Z,79328
2017-08-30T09:50:23.537Z,78976
2017-08-30T09:51:23.927Z,76064
2017-08-30T09:52:23.971Z,67616
2017-08-30T09:53:23.712Z,60672
2017-08-30T09:54:23.430Z,56544
2017-08-30T09:55:24.494Z,55488
2017-08-30T09:56:24.233Z,54688
2017-08-30T09:57:24.586Z,52160
2017-08-30T09:58:24.644Z,53920
2017-08-30T09:59:24.063Z,56896
2017-08-30T10:00:24.819Z,58720
2017-08-30T10:01:24.873Z,59104
2017-08-30T10:02:24.613Z,62048
2017-08-30T10:03:25.035Z,65440
2017-08-30T10:04:25.782Z,68256
2017-08-30T10:05:25.185Z,69248
2017-08-30T10:06:26.265Z,73824
2017-08-30T10:07:26.303Z,78144
2017-08-30T10:08:26.381Z,78368
2017-08-30T10:09:26.067Z,78624
2017-08-30T10:10:26.454Z,77856
2017-08-30T10:11:25.857Z,79680
2017-08-30T10:12:25.909Z,79232
2017-08-30T10:13:26.661Z,74496
2017-08-30T10:14:26.718Z,73344
2017-08-30T10:15:27.109Z,78112
2017-08-30T10:16:26.478Z,79904
2017-08-30T10:17:27.245Z,77920
2017-08-30T10:18:27.590Z,73600
2017-08-30T10:19:27.645Z,74816
2017-08-30T10:20:27.690Z,83200
2017-08-30T10:21:26.778Z,88672
2017-08-30T10:22:27.449Z,91552
2017-08-30T10:23:27.901Z,90272
2017-08-30T10:24:27.682Z,85952
2017-08-30T10:25:28.371Z,83168
2017-08-30T10:26:28.096Z,82560
2017-08-30T10:27:28.144Z,82016
2017-08-30T10:28:28.186Z,78176
2017-08-30T10:29:28.242Z,77472
2017-08-30T10:30:28.026Z,80960
2017-08-30T10:31:28.385Z,86112
2017-08-30T10:32:28.764Z,89632
2017-08-30T10:33:29.497Z,89312
2017-08-30T10:34:29.213Z,85664
2017-08-30T10:35:29.586Z,80608
2017-08-30T10:36:29.889Z,77312
2017-08-30T10:37:29.031Z,73184
2017-08-30T10:38:30.094Z,71520
2017-08-30T10:39:30.146Z,73152
2017-08-30T10:40:30.189Z,71072
2017-08-30T10:41:30.229Z,67232
2017-08-30T10:42:29.941Z,69376
2017-08-30T10:43:30.320Z,73312
2017-08-30T10:44:30.053Z,77632
2017-08-30T10:45:30.098Z,69504
2017-08-30T10:46:30.454Z,35712
2017-08-30T10:47:30.495Z,12088
2017-08-30T10:48:30.204Z,8832
2017-08-30T10:49:29.995Z,8088
2017-08-30T10:50:31.068Z,7760
2017-08-30T10:51:30.793Z,7560
2017-08-30T10:52:31.166Z,7424
2017-08-30T10:53:31.199Z,7260
2017-08-30T10:54:31.535Z,7204
2017-08-30T10:55:31.485Z,7248
2017-08-30T10:56:31.326Z,7244
2017-08-30T10:57:31.367Z,6892
2017-08-30T10:58:31.410Z,6736
2017-08-30T10:59:31.146Z,6900
2017-08-30T11:00:31.506Z,6952
2017-08-30T11:01:31.245Z,7224
2017-08-30T11:02:31.590Z,7160
2017-08-30T11:03:31.314Z,7060
2017-08-30T11:04:31.369Z,6976
2017-08-30T11:05:31.473Z,6904
2017-08-30T11:06:32.216Z,6784
2017-08-30T11:07:31.980Z,6664
2017-08-30T11:08:31.660Z,6528
2017-08-30T11:09:32.149Z,6392
2017-08-30T11:10:32.243Z,6260
2017-08-30T11:11:32.343Z,6160
2017-08-30T11:12:33.423Z,6056
2017-08-30T11:13:33.445Z,5976
2017-08-30T11:14:33.470Z,5872
2017-08-30T11:15:33.531Z,5832
2017-08-30T11:16:33.638Z,5768
2017-08-30T11:17:33.584Z,5676
2017-08-30T11:18:33.352Z,5628
2017-08-30T11:19:34.087Z,5556
2017-08-30T11:20:34.129Z,5492
2017-08-30T11:21:34.178Z,5484
2017-08-30T11:22:34.218Z,5440
2017-08-30T11:23:34.279Z,5396
2017-08-30T11:24:33.659Z,5332
2017-08-30T11:25:34.415Z,5328
2017-08-30T11:26:34.776Z,5300
2017-08-30T11:27:34.474Z,5284
2017-08-30T11:28:34.861Z,5268
2017-08-30T11:29:34.894Z,5252
2017-08-30T11:30:34.935Z,5228
2017-08-30T11:31:34.981Z,5200
2017-08-30T11:32:34.706Z,5164
2017-08-30T11:33:34.418Z,5144
2017-08-30T11:34:35.172Z,5104
2017-08-30T11:35:35.213Z,5064
2017-08-30T11:36:34.605Z,4972
2017-08-30T11:37:35.006Z,4876
2017-08-30T11:38:35.123Z,4820
2017-08-30T11:39:35.871Z,4796
2017-08-30T11:40:35.581Z,4760
2017-08-30T11:41:35.693Z,4704
2017-08-30T11:42:36.023Z,4656
2017-08-30T11:43:36.081Z,4588
2017-08-30T11:44:36.125Z,4492
2017-08-30T11:45:35.829Z,4408
2017-08-30T11:46:35.895Z,4264
2017-08-30T11:47:36.270Z,4180
2017-08-30T11:48:35.958Z,4176
2017-08-30T11:49:36.329Z,4172
2017-08-30T11:50:36.374Z,4176
2017-08-30T11:51:36.075Z,4200
2017-08-30T11:52:36.494Z,4220
2017-08-30T11:53:36.245Z,4228
2017-08-30T11:54:36.672Z,4248
2017-08-30T11:55:37.882Z,4288
2017-08-30T11:56:37.616Z,4280
2017-08-30T11:57:37.967Z,4224
2017-08-30T11:58:37.724Z,4092
2017-08-30T11:59:38.059Z,3828
2017-08-30T12:00:37.772Z,3820
2017-08-30T12:01:38.137Z,3672
2017-08-30T12:02:38.183Z,3604
2017-08-30T12:03:37.903Z,3556
2017-08-30T12:04:38.266Z,3740
2017-08-30T12:05:38.304Z,3892
2017-08-30T12:06:38.023Z,4044
2017-08-30T12:07:38.589Z,4112
2017-08-30T12:08:39.313Z,4148
2017-08-30T12:09:38.393Z,4348
2017-08-30T12:10:39.145Z,4612
2017-08-30T12:11:39.871Z,4772
2017-08-30T12:12:39.592Z,4764
2017-08-30T12:13:39.951Z,4756
2017-08-30T12:14:39.683Z,4688
2017-08-30T12:15:40.034Z,4692
2017-08-30T12:16:40.116Z,4656
2017-08-30T12:17:39.803Z,4636
2017-08-30T12:18:40.519Z,4640
2017-08-30T12:19:40.579Z,4436
2017-08-30T12:20:40.615Z,4312
2017-08-30T12:21:40.340Z,4216
2017-08-30T12:22:40.695Z,4212
2017-08-30T12:23:40.422Z,4288
2017-08-30T12:24:40.459Z,4452
2017-08-30T12:25:40.810Z,4480
2017-08-30T12:26:40.523Z,4496
2017-08-30T12:27:40.947Z,4552
2017-08-30T12:28:41.352Z,4568
2017-08-30T12:29:41.725Z,4712
2017-08-30T12:30:41.761Z,5012
2017-08-30T12:31:41.802Z,5240
2017-08-30T12:32:41.841Z,5368
2017-08-30T12:33:41.568Z,5400
2017-08-30T12:34:41.922Z,5472
2017-08-30T12:35:41.639Z,5468
2017-08-30T12:36:41.693Z,5344
2017-08-30T12:37:42.058Z,5276
2017-08-30T12:38:42.116Z,5320
2017-08-30T12:39:42.119Z,5336
2017-08-30T12:40:42.170Z,5380
2017-08-30T12:41:42.588Z,5464
2017-08-30T12:42:42.631Z,5492
2017-08-30T12:43:42.663Z,5528
2017-08-30T12:44:42.385Z,5592
2017-08-30T12:45:42.423Z,5740
2017-08-30T12:46:42.788Z,5856
2017-08-30T12:47:42.509Z,6048
2017-08-30T12:48:43.280Z,6260
2017-08-30T12:49:43.033Z,6332
2017-08-30T12:50:43.171Z,6312
2017-08-30T12:51:43.241Z,6220
2017-08-30T12:52:44.001Z,6136
2017-08-30T12:53:44.039Z,6044
2017-08-30T12:54:43.770Z,6004
2017-08-30T12:55:44.190Z,5980
2017-08-30T12:56:44.244Z,5988
2017-08-30T12:57:43.961Z,5988
2017-08-30T12:58:44.342Z,6020
2017-08-30T12:59:44.358Z,6056
2017-08-30T13:00:43.765Z,6056
2017-08-30T13:01:44.502Z,6000
2017-08-30T13:02:44.251Z,5948
2017-08-30T13:03:45.328Z,5908
2017-08-30T13:04:45.370Z,5864
2017-08-30T13:05:45.404Z,5840
2017-08-30T13:06:45.149Z,5844
2017-08-30T13:07:45.809Z,5880
2017-08-30T13:08:45.188Z,5908
2017-08-30T13:09:45.628Z,5904
2017-08-30T13:10:45.972Z,5888
2017-08-30T13:11:46.023Z,5896
2017-08-30T13:12:45.106Z,5900
2017-08-30T13:13:46.173Z,5956
2017-08-30T13:14:46.208Z,6064
2017-08-30T13:15:46.256Z,6164
2017-08-30T13:16:45.979Z,6252
2017-08-30T13:17:46.420Z,6336
2017-08-30T13:18:46.774Z,6428
2017-08-30T13:19:46.493Z,6524
2017-08-30T13:20:47.212Z,6600
2017-08-30T13:21:46.917Z,6648
2017-08-30T13:22:47.367Z,6696
2017-08-30T13:23:47.395Z,6740
2017-08-30T13:24:47.418Z,6768
2017-08-30T13:25:47.788Z,6800
2017-08-30T13:26:47.526Z,6836
2017-08-30T13:27:47.880Z,6872
2017-08-30T13:28:47.599Z,6896
2017-08-30T13:29:47.958Z,6860
2017-08-30T13:30:47.993Z,6828
2017-08-30T13:31:47.385Z,6808
2017-08-30T13:32:47.808Z,6852
2017-08-30T13:33:48.279Z,6900
2017-08-30T13:34:48.626Z,6948
2017-08-30T13:35:48.351Z,6964
2017-08-30T13:36:48.451Z,7012
2017-08-30T13:37:49.203Z,7044
2017-08-30T13:38:48.931Z,7048